Time;durP1;ratioP1;P1;durP2;ratioP2;P2;SDS_P1;SDS_P2;PMS_P1;PMS_P2;Temp;Humidity;BMP_temperature;BMP_pressure;BME280_temperature;BME280_humidity;BME280_pressure;Samples;Min_cycle;Max_cycle;Signal;HPM_P1;HPM_P2
2022/05/18 00:01:13;;;;;;;3.60;2.20;;;14.80;1.00;;;;;;5056697;28;20470;-78
2022/05/18 00:03:45;;;;;;;4.10;2.63;;;14.80;1.00;;;;;;5060903;28;20451;-79
2022/05/18 00:06:16;;;;;;;5.90;2.97;;;14.80;1.00;;;;;;5059541;28;20418;-78
2022/05/18 00:08:44;;;;;;;4.30;2.60;;;14.70;1.00;;;;;;5060424;28;20434;-78
2022/05/18 00:11:16;;;;;;;5.57;2.97;;;14.70;1.00;;;;;;5055919;28;20503;-79
2022/05/18 00:13:52;;;;;;;4.60;2.93;;;14.60;1.00;;;;;;5058058;28;20462;-78
2022/05/18 00:16:25;;;;;;;4.53;2.87;;;14.50;1.00;;;;;;5054734;28;20518;-78
2022/05/18 00:18:55;;;;;;;4.03;2.87;;;14.50;1.00;;;;;;5061159;28;20553;-78
2022/05/18 00:21:26;;;;;;;6.57;2.97;;;14.50;1.00;;;;;;5053892;28;20457;-80
2022/05/18 00:23:55;;;;;;;6.10;4.87;;;14.40;1.00;;;;;;5061896;28;20529;-77
2022/05/18 00:26:24;;;;;;;6.10;3.23;;;14.30;1.00;;;;;;5058653;28;20442;-79
2022/05/18 00:28:56;;;;;;;6.80;3.67;;;14.30;1.00;;;;;;5055840;28;20426;-80
2022/05/18 00:31:24;;;;;;;7.20;3.50;;;14.30;1.00;;;;;;5057574;28;20454;-80
2022/05/18 00:33:56;;;;;;;5.90;3.43;;;14.30;1.00;;;;;;5059618;28;20434;-78
2022/05/18 00:36:25;;;;;;;6.30;3.20;;;14.20;1.00;;;;;;5061459;28;20444;-77
2022/05/18 00:38:54;;;;;;;5.27;2.77;;;14.20;1.00;;;;;;5060869;28;20458;-77
2022/05/18 00:41:24;;;;;;;4.97;2.67;;;14.20;1.00;;;;;;5061150;28;20430;-82
2022/05/18 00:43:57;;;;;;;6.87;3.40;;;14.10;1.00;;;;;;5049832;28;20463;-77
2022/05/18 00:46:25;;;;;;;5.73;3.07;;;14.10;1.00;;;;;;5057891;28;20476;-78
2022/05/18 00:48:55;;;;;;;3.77;2.90;;;14.00;1.00;;;;;;5062792;28;20511;-80
2022/05/18 00:51:43;;;;;;;4.67;3.03;;;14.00;1.00;;;;;;5061293;28;20457;-80
2022/05/18 00:54:16;;;;;;;6.00;3.00;;;14.00;1.00;;;;;;5054688;28;20417;-79
2022/05/18 00:56:53;;;;;;;5.63;3.07;;;14.00;1.00;;;;;;5056465;28;20429;-79
2022/05/18 00:59:26;;;;;;;4.67;2.27;;;13.90;1.00;;;;;;5053111;28;21373;-81
2022/05/18 01:01:55;;;;;;;4.83;2.67;;;13.90;1.00;;;;;;5047512;28;20431;-82
2022/05/18 01:04:33;;;;;;;5.40;2.80;;;13.80;1.00;;;;;;5048268;28;20413;-79
2022/05/18 01:07:14;;;;;;;6.27;2.70;;;13.80;1.00;;;;;;5051436;28;20460;-80
2022/05/18 01:09:46;;;;;;;10.47;3.13;;;13.70;1.00;;;;;;5054529;28;20402;-82
2022/05/18 01:12:17;;;;;;;5.60;2.63;;;13.70;1.00;;;;;;5054682;28;20448;-79
2022/05/18 01:14:47;;;;;;;3.80;2.60;;;13.60;1.00;;;;;;5056041;28;20472;-81
2022/05/18 01:17:29;;;;;;;4.47;2.83;;;13.60;1.00;;;;;;5051289;28;20414;-77
2022/05/18 01:20:06;;;;;;;5.27;3.10;;;13.60;1.00;;;;;;5050632;28;20465;-79
2022/05/18 01:22:47;;;;;;;3.60;2.07;;;13.60;1.00;;;;;;5053778;28;20444;-80
2022/05/18 01:25:33;;;;;;;4.43;2.30;;;13.60;1.00;;;;;;5055222;28;20444;-79
2022/05/18 01:28:06;;;;;;;6.50;2.27;;;13.50;1.00;;;;;;5053015;28;20457;-79
2022/05/18 01:30:48;;;;;;;4.30;2.10;;;13.50;1.00;;;;;;5052426;28;20404;-80
2022/05/18 01:33:23;;;;;;;11.30;2.30;;;13.50;1.00;;;;;;5050160;28;20495;-78
2022/05/18 01:35:54;;;;;;;8.20;2.03;;;13.40;1.00;;;;;;5054140;28;20433;-80
2022/05/18 01:38:24;;;;;;;4.80;2.60;;;13.50;1.00;;;;;;5051943;28;20435;-79
2022/05/18 01:41:04;;;;;;;4.30;1.77;;;13.50;1.00;;;;;;5054486;28;20429;-80
2022/05/18 01:43:46;;;;;;;4.90;1.90;;;13.60;1.00;;;;;;5050293;28;21089;-79
2022/05/18 01:46:18;;;;;;;3.80;1.90;;;13.60;1.00;;;;;;5049101;28;20485;-78
2022/05/18 01:48:52;;;;;;;6.77;1.87;;;13.60;1.00;;;;;;5050432;28;20426;-80
2022/05/18 01:51:36;;;;;;;3.90;1.90;;;13.50;1.00;;;;;;5050678;28;20476;-77
2022/05/18 01:54:06;;;;;;;4.70;1.80;;;13.40;1.00;;;;;;5053031;28;20732;-81
2022/05/18 01:56:35;;;;;;;6.53;1.77;;;13.40;1.00;;;;;;5047545;28;20420;-80
2022/05/18 01:59:10;;;;;;;4.70;1.63;;;13.30;1.00;;;;;;5051900;28;20632;-79
2022/05/18 02:01:44;;;;;;;5.30;1.77;;;13.30;1.00;;;;;;5051774;28;20558;-78
2022/05/18 02:04:15;;;;;;;6.20;2.00;;;13.30;1.00;;;;;;5052259;28;20494;-80
2022/05/18 02:06:47;;;;;;;5.10;2.00;;;13.30;1.00;;;;;;5052831;28;20477;-79
2022/05/18 02:09:16;;;;;;;5.67;1.87;;;13.30;1.00;;;;;;5053945;28;20444;-77
2022/05/18 02:11:45;;;;;;;7.50;1.70;;;13.20;1.00;;;;;;5056651;28;20538;-79
2022/05/18 02:14:17;;;;;;;3.43;1.60;;;13.10;1.00;;;;;;5050864;28;20463;-82
2022/05/18 02:16:46;;;;;;;4.43;1.73;;;13.10;1.00;;;;;;5055567;28;20437;-79
2022/05/18 02:19:16;;;;;;;3.53;1.30;;;13.10;1.00;;;;;;5052461;28;20470;-79
2022/05/18 02:21:45;;;;;;;4.80;1.50;;;13.00;1.00;;;;;;5054460;28;20456;-80
2022/05/18 02:24:15;;;;;;;3.70;1.47;;;13.10;1.00;;;;;;5050534;28;20448;-79
2022/05/18 02:26:47;;;;;;;3.83;1.40;;;13.10;1.00;;;;;;5054525;28;20482;-77
2022/05/18 02:29:17;;;;;;;5.07;1.57;;;13.00;1.00;;;;;;5051222;28;20428;-79
2022/05/18 02:31:44;;;;;;;5.90;2.10;;;13.00;1.00;;;;;;5053912;28;20422;-80
2022/05/18 02:34:16;;;;;;;5.30;2.00;;;13.00;1.00;;;;;;5043115;28;20437;-81
2022/05/18 02:36:48;;;;;;;6.27;1.60;;;12.90;1.00;;;;;;5054904;28;20425;-79
2022/05/18 02:39:16;;;;;;;5.13;2.00;;;12.90;1.00;;;;;;5050065;28;20444;-79
2022/05/18 02:41:45;;;;;;;4.03;1.70;;;12.80;1.00;;;;;;5049160;28;20413;-80
2022/05/18 02:44:17;;;;;;;3.93;1.60;;;12.80;1.00;;;;;;5055426;28;20444;-80
2022/05/18 02:46:45;;;;;;;7.23;1.60;;;12.80;1.00;;;;;;5052210;28;20451;-79
2022/05/18 02:49:16;;;;;;;6.20;1.67;;;12.80;1.00;;;;;;5049873;28;20472;-78
2022/05/18 02:51:47;;;;;;;5.70;1.80;;;12.80;1.00;;;;;;5053955;28;20428;-79
2022/05/18 02:57:08;;;;;;;5.03;1.80;;;12.70;1.00;;;;;;5050932;28;21142;-82
2022/05/18 02:59:45;;;;;;;8.13;1.70;;;12.70;1.00;;;;;;5051296;28;20409;-81
2022/05/18 03:02:21;;;;;;;6.57;1.70;;;12.60;1.00;;;;;;5052777;28;20422;-81
2022/05/18 03:04:55;;;;;;;9.17;1.87;;;12.60;1.00;;;;;;5055718;28;20444;-82
2022/05/18 03:07:28;;;;;;;6.20;1.90;;;12.50;1.00;;;;;;5052996;28;21548;-80
2022/05/18 03:09:55;;;;;;;4.90;1.40;;;12.60;1.00;;;;;;5055228;28;20412;-80
2022/05/18 03:12:25;;;;;;;4.83;1.30;;;12.50;1.00;;;;;;5052232;28;20424;-80
2022/05/18 03:15:04;;;;;;;3.60;1.70;;;12.50;1.00;;;;;;5054146;28;20467;-81
2022/05/18 03:17:36;;;;;;;4.73;1.97;;;12.40;1.00;;;;;;5053803;28;20479;-79
2022/05/18 03:20:07;;;;;;;3.80;1.37;;;12.40;1.00;;;;;;5051060;28;20436;-78
2022/05/18 03:25:25;;;;;;;4.27;1.97;;;12.40;1.00;;;;;;5056504;28;20480;-83
2022/05/18 03:27:55;;;;;;;3.70;1.60;;;12.30;1.00;;;;;;5060601;28;20474;-80
2022/05/18 03:30:27;;;;;;;3.60;1.70;;;12.30;1.00;;;;;;5057205;28;20431;-79
2022/05/18 03:32:55;;;;;;;3.80;1.50;;;12.30;1.00;;;;;;5056973;28;20487;-81
2022/05/18 03:35:26;;;;;;;5.70;1.80;;;12.30;1.00;;;;;;5056615;28;20419;-81
2022/05/18 03:37:57;;;;;;;10.90;1.60;;;12.30;1.00;;;;;;5057060;28;20427;-78
2022/05/18 03:40:27;;;;;;;3.23;1.70;;;12.20;1.00;;;;;;5053694;28;20435;-78
2022/05/18 03:42:57;;;;;;;6.40;1.97;;;12.20;1.00;;;;;;5056830;28;20428;-79
2022/05/18 03:45:27;;;;;;;4.33;1.70;;;12.10;1.00;;;;;;5053784;28;20467;-79
2022/05/18 03:47:56;;;;;;;4.03;1.57;;;12.10;1.00;;;;;;5058831;28;20463;-79
2022/05/18 03:50:28;;;;;;;4.03;1.80;;;12.10;1.00;;;;;;5053458;28;20456;-79
2022/05/18 03:52:57;;;;;;;4.10;1.70;;;12.00;1.00;;;;;;5049164;28;20446;-80
2022/05/18 03:55:27;;;;;;;5.63;1.70;;;12.00;1.00;;;;;;5057471;28;20518;-79
2022/05/18 03:57:56;;;;;;;4.27;2.20;;;12.00;1.00;;;;;;5054418;28;20487;-81
2022/05/18 04:00:27;;;;;;;3.57;1.30;;;12.10;1.00;;;;;;5050341;28;20436;-79
2022/05/18 04:02:56;;;;;;;43.37;21.93;;;12.00;1.00;;;;;;5054276;28;20463;-81
2022/05/18 04:05:28;;;;;;;5.73;2.57;;;12.10;1.00;;;;;;5052202;28;20448;-77
2022/05/18 04:07:56;;;;;;;5.10;1.50;;;12.20;1.00;;;;;;5060330;28;20480;-80
2022/05/18 04:10:26;;;;;;;4.13;1.50;;;12.20;1.00;;;;;;5057880;28;20420;-79
2022/05/18 04:12:56;;;;;;;9.53;3.73;;;12.20;1.00;;;;;;5055855;28;20454;-82
2022/05/18 04:15:27;;;;;;;3.93;1.93;;;12.20;1.00;;;;;;5044607;28;20478;-82
2022/05/18 04:17:58;;;;;;;5.07;1.63;;;12.20;1.00;;;;;;5068517;28;20432;-78
2022/05/18 04:20:27;;;;;;;3.63;2.70;;;12.30;1.00;;;;;;5051513;28;20422;-79
2022/05/18 04:22:56;;;;;;;5.83;1.97;;;12.40;1.00;;;;;;5053140;28;20440;-80
2022/05/18 04:25:28;;;;;;;7.03;2.23;;;12.40;1.00;;;;;;5057295;28;20463;-78
2022/05/18 04:27:57;;;;;;;9.37;3.13;;;12.50;1.00;;;;;;5052178;28;20445;-78
2022/05/18 04:30:28;;;;;;;4.20;1.80;;;12.40;1.00;;;;;;5057710;28;20477;-79
2022/05/18 04:32:58;;;;;;;4.90;1.63;;;12.50;1.00;;;;;;5057567;28;20492;-78
2022/05/18 04:35:28;;;;;;;4.57;1.70;;;12.50;1.00;;;;;;5059832;28;20440;-81
2022/05/18 04:37:57;;;;;;;3.87;1.37;;;12.50;1.00;;;;;;5052678;28;20496;-79
2022/05/18 04:40:26;;;;;;;3.67;1.80;;;12.50;1.00;;;;;;5058436;28;20478;-79
2022/05/18 04:43:06;;;;;;;5.73;2.13;;;12.60;1.00;;;;;;5052935;28;20459;-80
2022/05/18 04:45:44;;;;;;;3.70;1.67;;;12.60;1.00;;;;;;5055107;28;20496;-79
2022/05/18 04:48:17;;;;;;;4.67;2.10;;;12.80;1.00;;;;;;5057370;28;20456;-76
2022/05/18 04:50:47;;;;;;;6.17;1.80;;;12.80;1.00;;;;;;5052489;28;20429;-77
2022/05/18 04:53:17;;;;;;;4.57;1.93;;;12.80;1.00;;;;;;5055999;28;20543;-76
2022/05/18 04:55:47;;;;;;;5.73;2.00;;;12.90;1.00;;;;;;5056784;28;20432;-78
2022/05/18 04:58:16;;;;;;;4.40;1.80;;;12.80;1.00;;;;;;5052006;28;20423;-77
2022/05/18 05:00:57;;;;;;;3.47;1.63;;;12.90;1.00;;;;;;5051297;28;20421;-79
2022/05/18 05:03:26;;;;;;;6.10;2.50;;;12.90;1.00;;;;;;5043369;28;20412;-80
2022/05/18 05:05:53;;;;;;;4.93;1.90;;;12.90;1.00;;;;;;5046664;28;21198;-77
2022/05/18 05:08:23;;;;;;;4.20;2.00;;;13.00;1.00;;;;;;5051629;28;20508;-77
2022/05/18 05:10:49;;;;;;;4.60;1.90;;;13.10;1.00;;;;;;5054908;28;20504;-79
2022/05/18 05:13:17;;;;;;;3.10;1.40;;;13.20;1.00;;;;;;5047973;28;20557;-76
2022/05/18 05:15:50;;;;;;;5.57;1.80;;;13.30;1.00;;;;;;5059439;28;20448;-78
2022/05/18 05:18:25;;;;;;;5.97;3.10;;;13.30;1.00;;;;;;5053237;28;20483;-78
2022/05/18 05:20:56;;;;;;;4.43;1.90;;;13.40;1.00;;;;;;5048187;28;20461;-77
2022/05/18 05:23:27;;;;;;;7.40;3.50;;;13.40;1.00;;;;;;5049858;28;20477;-77
2022/05/18 05:25:57;;;;;;;5.00;2.20;;;13.50;1.00;;;;;;5051271;28;20435;-77
2022/05/18 05:28:27;;;;;;;4.23;1.80;;;13.60;1.00;;;;;;5054778;28;21714;-77
2022/05/18 05:31:07;;;;;;;6.23;1.77;;;13.70;1.00;;;;;;5056908;28;20473;-77
2022/05/18 05:33:39;;;;;;;4.90;1.77;;;13.70;1.00;;;;;;5053554;28;20471;-77
2022/05/18 05:36:08;;;;;;;4.23;1.60;;;13.70;1.00;;;;;;5057784;28;20446;-76
2022/05/18 05:38:36;;;;;;;5.93;2.50;;;13.70;1.00;;;;;;5055740;28;20491;-77
2022/05/18 05:41:06;;;;;;;4.80;2.00;;;13.70;1.00;;;;;;5060671;28;20523;-76
2022/05/18 05:43:36;;;;;;;6.17;2.20;;;13.80;1.00;;;;;;5058130;28;20496;-77
2022/05/18 05:46:15;;;;;;;4.90;1.60;;;13.90;1.00;;;;;;5058289;28;21228;-78
2022/05/18 05:48:47;;;;;;;5.23;1.80;;;13.90;1.00;;;;;;5045793;28;20490;-76
2022/05/18 05:51:20;;;;;;;4.40;1.93;;;13.90;1.00;;;;;;5049362;28;20481;-83
2022/05/18 05:53:48;;;;;;;4.37;2.17;;;14.00;1.00;;;;;;5051903;28;20486;-81
2022/05/18 05:56:19;;;;;;;4.93;1.67;;;14.00;1.00;;;;;;5053761;28;20465;-80
2022/05/18 05:58:48;;;;;;;23.97;15.80;;;14.10;1.00;;;;;;5055709;28;20489;-81
2022/05/18 06:01:19;;;;;;;6.43;1.77;;;14.10;1.00;;;;;;5055015;28;20485;-80
2022/05/18 06:03:47;;;;;;;5.30;1.57;;;14.20;1.00;;;;;;5057914;28;20441;-80
2022/05/18 06:06:19;;;;;;;3.67;1.50;;;14.20;1.00;;;;;;5054149;28;20516;-80
2022/05/18 06:08:47;;;;;;;4.83;2.00;;;14.20;1.00;;;;;;5055152;28;20444;-80
2022/05/18 06:11:16;;;;;;;4.90;1.87;;;14.20;1.00;;;;;;5057024;28;20466;-81
2022/05/18 06:13:46;;;;;;;4.37;2.17;;;14.20;1.00;;;;;;5054217;28;20417;-84
2022/05/18 06:16:18;;;;;;;6.93;2.10;;;14.20;1.00;;;;;;5059881;28;20469;-80
2022/05/18 06:18:46;;;;;;;7.70;2.53;;;14.20;1.00;;;;;;5055072;28;20427;-81
2022/05/18 06:21:16;;;;;;;5.43;2.40;;;14.20;1.00;;;;;;5055761;28;20456;-82
2022/05/18 06:23:46;;;;;;;4.60;1.93;;;14.40;1.00;;;;;;5053307;28;20501;-82
2022/05/18 06:26:17;;;;;;;6.33;2.30;;;14.50;1.00;;;;;;5051734;28;20689;-79
2022/05/18 06:28:49;;;;;;;6.77;2.17;;;14.70;1.00;;;;;;5046242;28;20797;-78
2022/05/18 06:31:19;;;;;;;5.45;2.30;;;14.80;1.00;;;;;;5053669;28;20475;-80
2022/05/18 06:33:47;;;;;;;5.23;2.40;;;14.90;1.00;;;;;;5051120;28;20250;-79
2022/05/18 06:36:18;;;;;;;8.93;2.70;;;15.00;1.00;;;;;;5050463;28;20450;-79
2022/05/18 06:38:47;;;;;;;4.70;2.00;;;15.10;1.00;;;;;;5049021;28;20446;-79
2022/05/18 06:41:26;;;;;;;6.07;2.97;;;15.20;1.00;;;;;;5050411;28;20475;-78
2022/05/18 06:43:58;;;;;;;5.57;1.90;;;15.30;1.00;;;;;;5049326;28;20415;-78
2022/05/18 06:46:31;;;;;;;8.40;3.00;;;15.40;1.00;;;;;;5052519;28;20433;-79
2022/05/18 06:48:58;;;;;;;5.20;2.10;;;15.50;1.00;;;;;;5056966;28;20398;-80
2022/05/18 06:51:29;;;;;;;5.70;2.63;;;15.70;1.00;;;;;;5060102;28;20436;-79
2022/05/18 06:53:57;;;;;;;4.10;2.37;;;15.80;1.00;;;;;;5059979;28;20438;-79
2022/05/18 06:56:35;;;;;;;4.80;2.53;;;15.80;1.00;;;;;;5057541;28;20447;-78
2022/05/18 06:59:08;;;;;;;5.30;2.57;;;15.70;1.00;;;;;;5052700;28;20432;-77
2022/05/18 07:01:38;;;;;;;3.73;1.87;;;15.90;1.00;;;;;;5056816;28;20423;-80
2022/05/18 07:04:09;;;;;;;5.57;2.80;;;16.00;1.00;;;;;;5057822;28;20413;-78
2022/05/18 07:06:39;;;;;;;5.40;2.67;;;16.00;1.00;;;;;;5058765;28;20518;-78
2022/05/18 07:09:09;;;;;;;4.67;2.30;;;16.00;1.00;;;;;;5055520;28;20575;-79
2022/05/18 07:11:37;;;;;;;4.90;2.70;;;16.00;1.00;;;;;;5059616;28;20440;-79
2022/05/18 07:14:07;;;;;;;9.93;2.70;;;16.10;1.00;;;;;;5060252;28;20462;-79
2022/05/18 07:16:37;;;;;;;6.73;2.77;;;16.20;1.00;;;;;;5057070;28;20461;-77
2022/05/18 07:19:07;;;;;;;6.03;2.67;;;16.30;1.00;;;;;;5064911;28;20454;-78
2022/05/18 07:21:37;;;;;;;10.20;2.70;;;16.40;1.00;;;;;;5057322;28;20648;-79
2022/05/18 07:24:09;;;;;;;6.20;2.57;;;16.40;1.00;;;;;;5056295;28;20471;-79
2022/05/18 07:26:37;;;;;;;5.30;2.37;;;16.30;1.00;;;;;;5058821;28;20486;-80
2022/05/18 07:29:08;;;;;;;6.83;3.17;;;16.40;1.00;;;;;;5058547;28;20512;-78
2022/05/18 07:34:21;;;;;;;7.30;3.10;;;16.40;1.00;;;;;;5058913;28;20463;-77
2022/05/18 07:36:52;;;;;;;4.33;2.63;;;16.50;1.00;;;;;;5061818;28;20529;-79
2022/05/18 07:39:19;;;;;;;5.13;2.73;;;16.50;1.00;;;;;;5059911;28;20455;-78
2022/05/18 07:41:47;;;;;;;10.80;6.13;;;16.60;1.00;;;;;;5056619;28;20493;-79
2022/05/18 07:44:17;;;;;;;8.07;3.35;;;16.90;1.00;;;;;;5057992;28;20411;-78
2022/05/18 07:46:49;;;;;;;4.37;2.87;;;17.10;1.00;;;;;;5063354;28;20229;-80
2022/05/18 07:49:18;;;;;;;5.53;3.23;;;17.20;1.00;;;;;;5062596;28;20443;-78
2022/05/18 07:51:47;;;;;;;5.93;3.57;;;17.30;1.00;;;;;;5061824;28;20494;-79
2022/05/18 07:54:17;;;;;;;5.70;2.60;;;17.30;1.00;;;;;;5061232;28;20424;-78
2022/05/18 07:56:50;;;;;;;5.70;3.00;;;17.50;1.00;;;;;;5060834;28;20436;-78
2022/05/18 07:59:17;;;;;;;6.30;3.20;;;17.60;1.00;;;;;;5055078;28;20537;-78
2022/05/18 08:01:48;;;;;;;5.40;2.83;;;17.80;1.00;;;;;;5056720;28;20488;-78
2022/05/18 08:04:18;;;;;;;9.00;3.27;;;17.80;1.00;;;;;;5056434;28;20429;-78
2022/05/18 08:06:47;;;;;;;7.73;3.00;;;17.80;1.00;;;;;;5056287;28;20451;-80
2022/05/18 08:09:19;;;;;;;7.23;3.13;;;17.90;1.00;;;;;;5048897;28;20434;-77
2022/05/18 08:17:27;;;;;;;4.77;2.80;;;18.80;1.00;;;;;;5060642;28;20625;-79
2022/05/18 08:19:58;;;;;;;5.37;3.10;;;19.00;1.00;;;;;;5054233;28;20471;-80
2022/05/18 08:22:27;;;;;;;8.00;3.50;;;19.20;1.00;;;;;;5055553;28;20470;-80
2022/05/18 08:24:57;;;;;;;11.57;3.40;;;19.30;1.00;;;;;;5056747;28;20237;-79
2022/05/18 08:27:30;;;;;;;4.70;2.73;;;19.40;1.00;;;;;;5050672;28;20444;-79
2022/05/18 08:30:06;;;;;;;5.07;2.90;;;19.60;1.00;;;;;;5057868;28;20463;-79
2022/05/18 08:32:37;;;;;;;5.40;3.13;;;19.60;1.00;;;;;;5055003;28;20432;-82
2022/05/18 08:35:13;;;;;;;5.40;3.40;;;19.60;1.00;;;;;;5059257;28;20427;-81
2022/05/18 08:37:49;;;;;;;12.10;3.70;;;19.70;1.00;;;;;;5056848;28;20444;-80
2022/05/18 08:40:37;;;;;;;4.77;3.17;;;19.80;1.00;;;;;;5056806;28;20436;-83
2022/05/18 08:43:09;;;;;;;6.40;3.80;;;19.90;1.00;;;;;;5058807;28;20440;-79
2022/05/18 08:45:46;;;;;;;7.27;4.13;;;20.00;1.00;;;;;;5059005;28;20433;-83
2022/05/18 08:48:27;;;;;;;7.40;3.57;;;20.20;1.00;;;;;;5056486;28;20444;-82
2022/05/18 08:51:17;;;;;;;6.60;3.67;;;20.10;1.00;;;;;;5056726;28;20969;-81
2022/05/18 08:53:56;;;;;;;7.27;3.50;;;20.10;1.00;;;;;;5056049;28;20417;-81
2022/05/18 08:56:29;;;;;;;9.00;3.90;;;20.20;1.00;;;;;;5054172;28;20478;-78
2022/05/18 08:58:57;;;;;;;5.90;3.47;;;20.30;1.00;;;;;;5060070;28;20464;-81
2022/05/18 09:01:40;;;;;;;7.20;3.30;;;20.60;1.00;;;;;;5057094;28;20493;-80
2022/05/18 09:04:16;;;;;;;6.47;3.53;;;20.80;1.00;;;;;;5055331;28;20646;-80
2022/05/18 09:06:57;;;;;;;6.63;3.80;;;21.00;1.00;;;;;;5051651;28;20421;-80
2022/05/18 09:12:17;;;;;;;10.30;4.27;;;21.40;1.00;;;;;;5054458;28;20433;-82
2022/05/18 09:14:51;;;;;;;6.00;3.33;;;21.20;1.00;;;;;;5061347;28;20425;-82
2022/05/18 09:17:37;;;;;;;7.87;4.27;;;21.20;1.00;;;;;;5052350;28;20479;-82
2022/05/18 09:20:16;;;;;;;6.97;3.70;;;21.20;1.00;;;;;;5058460;28;20453;-79
2022/05/18 09:23:17;;;;;;;6.90;3.93;;;21.50;1.00;;;;;;5050784;28;20500;-79
2022/05/18 09:26:07;;;;;;;5.73;4.33;;;21.60;1.00;;;;;;5050327;28;20430;-80
2022/05/18 09:28:49;;;;;;;6.10;4.33;;;22.00;1.00;;;;;;5053760;28;20481;-81
2022/05/18 09:31:37;;;;;;;7.27;3.83;;;22.80;1.00;;;;;;5052752;28;20513;-80
2022/05/18 09:34:36;;;;;;;7.40;4.20;;;24.50;1.00;;;;;;5054654;28;20526;-79
2022/05/18 09:37:36;;;;;;;8.63;4.20;;;26.20;1.00;;;;;;5048574;28;20482;-80
2022/05/18 09:40:20;;;;;;;6.30;4.03;;;27.90;1.00;;;;;;5048665;28;20417;-80
2022/05/18 09:42:58;;;;;;;7.00;4.73;;;28.80;1.00;;;;;;5054580;28;20448;-82
2022/05/18 09:45:29;;;;;;;8.03;4.40;;;29.70;1.00;;;;;;5051681;28;21122;-82
2022/05/18 09:48:17;;;;;;;5.93;4.30;;;30.00;1.00;;;;;;5055609;28;20439;-81
2022/05/18 09:50:50;;;;;;;10.60;4.67;;;30.10;1.00;;;;;;5050619;28;20428;-81
2022/05/18 09:53:18;;;;;;;7.37;3.90;;;29.90;1.00;;;;;;5048088;28;20623;-82
2022/05/18 09:55:50;;;;;;;6.73;4.60;;;29.50;1.00;;;;;;5058862;28;20424;-79
2022/05/18 09:58:26;;;;;;;8.73;5.10;;;29.40;1.00;;;;;;5054134;28;22130;-79
2022/05/18 10:07:30;;;;;;;7.50;4.23;;;30.00;1.00;;;;;;4987873;28;20621;-81
2022/05/18 10:10:22;;;;;;;10.90;4.60;;;29.80;1.00;;;;;;5043137;28;20432;-80
2022/05/18 10:13:05;;;;;;;10.03;4.40;;;30.70;1.00;;;;;;5048605;28;20541;-78
2022/05/18 10:15:38;;;;;;;6.10;4.13;;;31.80;1.00;;;;;;5052129;28;20440;-77
2022/05/18 10:18:39;;;;;;;8.30;4.70;;;32.10;1.00;;;;;;5053335;28;20459;-79
2022/05/18 10:21:24;;;;;;;12.17;5.83;;;31.90;1.00;;;;;;5055771;28;20479;-76
2022/05/18 10:24:07;;;;;;;7.63;4.50;;;31.80;1.00;;;;;;5054801;28;20472;-79
2022/05/18 10:26:40;;;;;;;9.50;5.10;;;31.30;1.00;;;;;;5060033;28;20539;-81
2022/05/18 10:29:28;;;;;;;7.23;5.30;;;32.00;1.00;;;;;;5054310;28;20486;-80
2022/05/18 10:32:09;;;;;;;8.00;5.43;;;32.50;1.00;;;;;;5055809;28;20455;-78
2022/05/18 10:34:48;;;;;;;7.53;4.77;;;32.20;1.00;;;;;;5057734;28;20444;-78
2022/05/18 10:37:29;;;;;;;8.40;5.30;;;32.30;1.00;;;;;;5055787;28;20529;-76
2022/05/18 10:40:09;;;;;;;6.77;5.27;;;32.20;1.00;;;;;;5057962;28;20425;-80
2022/05/18 10:42:48;;;;;;;8.80;5.67;;;32.30;1.00;;;;;;5058689;28;20428;-76
2022/05/18 10:45:57;;;;;;;7.63;5.87;;;31.90;1.00;;;;;;5058230;28;20408;-80
2022/05/18 10:48:28;;;;;;;8.03;5.30;;;32.50;1.00;;;;;;5024215;28;20424;-81
2022/05/18 10:51:09;;;;;;;7.27;5.50;;;33.50;1.00;;;;;;5048644;28;20997;-81
2022/05/18 10:53:40;;;;;;;6.80;4.90;;;34.40;1.00;;;;;;5049751;28;20455;-78
2022/05/18 10:56:10;;;;;;;7.30;4.83;;;35.50;1.00;;;;;;5051304;28;20464;-79
2022/05/18 10:58:57;;;;;;;7.60;5.00;;;35.60;1.00;;;;;;5051225;28;20460;-80
2022/05/18 11:01:37;;;;;;;8.80;4.97;;;36.10;1.00;;;;;;5048692;28;20479;-82
2022/05/18 11:04:17;;;;;;;8.93;4.53;;;35.70;1.00;;;;;;5051532;28;20497;-81
2022/05/18 11:06:50;;;;;;;7.73;4.60;;;35.10;1.00;;;;;;5050569;28;20472;-78
2022/05/18 11:09:25;;;;;;;7.00;4.17;;;35.60;1.00;;;;;;5049686;28;20419;-79
2022/05/18 11:12:00;;;;;;;10.43;4.30;;;35.70;1.00;;;;;;5046757;28;20471;-81
2022/05/18 11:14:43;;;;;;;7.70;4.80;;;34.80;1.00;;;;;;5044048;28;20514;-83
2022/05/18 11:17:27;;;;;;;7.97;4.43;;;34.60;1.00;;;;;;5044935;28;20477;-78
2022/05/18 11:20:07;;;;;;;6.93;4.10;;;35.30;1.00;;;;;;5047939;28;20505;-82
2022/05/18 11:22:46;;;;;;;10.77;5.37;;;35.50;1.00;;;;;;5045201;28;20826;-82
2022/05/18 11:25:23;;;;;;;9.23;5.47;;;36.20;1.00;;;;;;5048287;22;20482;-81
2022/05/18 11:27:59;;;;;;;7.93;4.70;;;36.60;1.00;;;;;;5057963;28;20435;-80
2022/05/18 11:30:39;;;;;;;7.70;4.90;;;36.70;1.00;;;;;;5064979;28;20451;-80
2022/05/18 11:33:26;;;;;;;9.90;5.00;;;37.10;1.00;;;;;;5066014;28;20420;-79
2022/05/18 11:36:08;;;;;;;8.97;5.10;;;37.80;1.00;;;;;;5072520;28;20442;-85
2022/05/18 11:39:00;;;;;;;10.30;5.20;;;37.20;1.00;;;;;;5075810;28;20428;-79
2022/05/18 11:41:57;;;;;;;8.43;5.00;;;37.50;1.00;;;;;;5069557;28;20447;-83
2022/05/18 11:44:36;;;;;;;8.00;4.33;;;37.00;1.00;;;;;;5066960;28;20901;-80
2022/05/18 11:47:26;;;;;;;7.70;6.07;;;36.50;1.00;;;;;;5058235;28;21354;-83
2022/05/18 11:50:10;;;;;;;8.73;5.00;;;36.10;1.00;;;;;;5075019;28;20449;-83
2022/05/18 11:52:57;;;;;;;7.20;5.00;;;37.00;1.00;;;;;;5074048;28;20431;-81
2022/05/18 11:55:39;;;;;;;13.27;6.70;;;37.10;1.00;;;;;;5075810;28;20459;-83
2022/05/18 11:58:21;;;;;;;7.60;4.40;;;36.80;1.00;;;;;;5079923;28;20447;-83
2022/05/18 12:01:00;;;;;;;7.60;4.83;;;36.60;1.00;;;;;;5071769;28;20490;-82
2022/05/18 12:03:47;;;;;;;9.77;4.77;;;37.10;1.00;;;;;;5073137;28;22079;-84
2022/05/18 12:06:36;;;;;;;8.50;5.17;;;37.40;1.00;;;;;;5068385;28;20546;-80
2022/05/18 12:09:36;;;;;;;8.30;4.33;;;37.60;1.00;;;;;;5070709;28;20427;-75
2022/05/18 12:12:17;;;;;;;10.50;5.10;;;37.90;1.00;;;;;;5050951;28;20439;-76
2022/05/18 12:14:56;;;;;;;8.37;5.20;;;37.10;1.00;;;;;;5073151;28;20626;-81
2022/05/18 12:17:34;;;;;;;7.80;4.57;;;37.00;1.00;;;;;;5072732;28;20494;-80
2022/05/18 12:20:07;;;;;;;10.33;5.03;;;37.30;1.00;;;;;;5072465;28;20475;-82
2022/05/18 12:22:40;;;;;;;10.97;4.50;;;37.70;1.00;;;;;;5075274;28;20439;-76
2022/05/18 12:25:09;;;;;;;9.07;5.43;;;38.30;1.00;;;;;;5077581;28;20501;-77
2022/05/18 12:27:39;;;;;;;8.80;4.83;;;38.30;1.00;;;;;;5079443;28;20481;-81
2022/05/18 12:30:13;;;;;;;7.70;4.73;;;38.10;1.00;;;;;;5080696;28;20454;-81
2022/05/18 12:32:47;;;;;;;8.90;5.33;;;38.30;1.00;;;;;;5044825;28;21005;-81
2022/05/18 12:35:27;;;;;;;9.23;4.90;;;38.50;1.00;;;;;;5075459;28;20435;-80
2022/05/18 12:38:19;;;;;;;10.37;5.13;;;38.50;1.00;;;;;;5074449;28;20565;-78
2022/05/18 12:40:56;;;;;;;6.83;4.37;;;39.30;1.00;;;;;;5078281;28;20447;-78
2022/05/18 12:43:33;;;;;;;6.97;4.60;;;38.30;1.00;;;;;;5073471;28;20475;-83
2022/05/18 12:46:27;;;;;;;10.63;4.90;;;37.80;1.00;;;;;;5067249;28;20485;-80
2022/05/18 12:48:59;;;;;;;8.63;4.77;;;37.80;1.00;;;;;;5071731;28;20479;-79
2022/05/18 12:52:02;;;;;;;9.60;5.47;;;38.20;1.00;;;;;;5067074;28;20498;-80
2022/05/18 12:54:50;;;;;;;9.80;5.57;;;37.90;1.00;;;;;;5069053;28;20467;-79
2022/05/18 12:57:46;;;;;;;10.10;4.50;;;38.20;1.00;;;;;;5075368;28;20467;-81
2022/05/18 13:00:50;;;;;;;9.40;4.40;;;37.80;1.00;;;;;;5073125;28;20463;-84
2022/05/18 13:03:27;;;;;;;7.07;4.70;;;38.50;1.00;;;;;;5070628;28;20455;-80
2022/05/18 13:05:58;;;;;;;7.30;4.80;;;38.90;1.00;;;;;;5071827;28;20435;-80
2022/05/18 13:08:58;;;;;;;12.80;5.17;;;38.50;1.00;;;;;;5077956;28;20450;-80
2022/05/18 13:11:45;;;;;;;9.33;5.93;;;37.80;1.00;;;;;;5026790;28;20431;-80
2022/05/18 13:14:38;;;;;;;8.67;5.00;;;37.80;1.00;;;;;;5069453;28;20421;-78
2022/05/18 13:17:19;;;;;;;9.20;4.70;;;38.10;1.00;;;;;;5080015;28;20408;-81
2022/05/18 13:19:58;;;;;;;8.53;4.60;;;37.70;1.00;;;;;;5073899;28;20467;-84
2022/05/18 13:22:49;;;;;;;8.20;4.57;;;37.10;1.00;;;;;;5081349;28;20419;-81
2022/05/18 13:25:17;;;;;;;8.37;4.90;;;36.90;1.00;;;;;;5072077;28;20440;-79
2022/05/18 13:27:52;;;;;;;10.70;5.27;;;37.00;1.00;;;;;;5075461;28;20466;-85
2022/05/18 13:30:28;;;;;;;7.10;4.40;;;37.10;1.00;;;;;;5077449;28;20932;-80
2022/05/18 13:32:58;;;;;;;8.30;5.00;;;37.20;1.00;;;;;;5075965;28;20419;-79
2022/05/18 13:35:27;;;;;;;9.93;6.53;;;37.90;1.00;;;;;;5071485;28;21426;-80
2022/05/18 13:38:03;;;;;;;8.77;5.60;;;38.40;1.00;;;;;;5069738;28;20635;-80
2022/05/18 13:40:30;;;;;;;8.20;4.67;;;38.20;1.00;;;;;;5067938;28;20867;-79
2022/05/18 13:43:01;;;;;;;9.43;4.70;;;38.30;1.00;;;;;;5067505;28;20480;-82
2022/05/18 13:45:30;;;;;;;8.10;4.63;;;38.50;1.00;;;;;;5067409;28;20503;-80
2022/05/18 13:47:58;;;;;;;10.60;5.13;;;38.30;1.00;;;;;;5056148;28;20423;-80
2022/05/18 13:50:28;;;;;;;6.40;4.60;;;38.40;1.00;;;;;;5063469;28;20483;-78
2022/05/18 13:52:58;;;;;;;7.40;4.53;;;37.90;1.00;;;;;;5070691;28;20448;-81
2022/05/18 13:55:27;;;;;;;9.10;5.40;;;37.90;1.00;;;;;;5072740;28;20467;-84
2022/05/18 13:57:57;;;;;;;7.27;4.50;;;38.00;1.00;;;;;;5059733;28;20456;-84